Time;durP1;ratioP1;P1;durP2;ratioP2;P2;SDS_P1;SDS_P2;PMS_P1;PMS_P2;Temp;Humidity;BMP_temperature;BMP_pressure;BME280_temperature;BME280_humidity;BME280_pressure;Samples;Min_cycle;Max_cycle;Signal;HPM_P1;HPM_P2
2021/09/28 00:00:57;;;;;;;;;;;;;;;15.59;84.60;98437.26;1624743;86;20853;-88
2021/09/28 00:03:23;;;;;;;;;;;;;;;15.66;84.61;98437.03;1625716;86;20203;-88
2021/09/28 00:05:49;;;;;;;;;;;;;;;15.63;84.64;98432.05;1624099;86;20330;-88
2021/09/28 00:08:16;;;;;;;;;;;;;;;15.59;84.69;98433.30;1625965;86;26029;-84
2021/09/28 00:10:42;;;;;;;;;;;;;;;15.57;84.73;98438.36;1626651;88;24809;-83
2021/09/28 00:13:08;;;;;;;;;;;;;;;15.59;84.76;98432.47;1625706;86;20266;-88
2021/09/28 00:15:34;;;;;;;;;;;;;;;15.66;84.79;98429.59;1624103;86;25373;-88
2021/09/28 00:18:03;;;;;;;;;;;;;;;15.74;84.81;98437.66;1626093;88;20937;-88
2021/09/28 00:20:32;;;;;;;;;;;;;;;15.79;84.85;98434.95;1623772;86;27012;-89
2021/09/28 00:22:57;;;;;;;;;;;;;;;15.77;84.87;98436.05;1624836;86;24436;-84
2021/09/28 00:25:23;;;;;;;;;;;;;;;15.72;84.90;98439.12;1625008;86;20291;-84
2021/09/28 00:27:52;;;;;;;;;;;;;;;15.63;84.92;98434.69;1623349;86;24845;-88
2021/09/28 00:30:24;;;;;;;;;;;;;;;15.60;84.92;98436.77;1624455;86;22244;-88
2021/09/28 00:32:50;;;;;;;;;;;;;;;15.61;84.96;98447.17;1624833;87;26056;-84
2021/09/28 00:35:16;;;;;;;;;;;;;;;15.66;85.01;98441.47;1626159;86;20271;-85
2021/09/28 00:37:42;;;;;;;;;;;;;;;15.65;85.04;98442.47;1626453;86;20237;-88
2021/09/28 00:40:09;;;;;;;;;;;;;;;15.68;85.07;98445.66;1624535;86;24842;-88
2021/09/28 00:42:36;;;;;;;;;;;;;;;15.63;85.09;98447.04;1625912;86;21992;-86
2021/09/28 00:45:02;;;;;;;;;;;;;;;15.59;85.08;98444.34;1626477;86;26046;-85
2021/09/28 00:47:28;;;;;;;;;;;;;;;15.56;85.11;98448.07;1624898;86;24429;-88
2021/09/28 00:49:55;;;;;;;;;;;;;;;15.56;85.13;98443.28;1623148;86;20254;-85
2021/09/28 00:52:21;;;;;;;;;;;;;;;15.50;85.14;98440.19;1624941;86;25491;-87
2021/09/28 00:54:47;;;;;;;;;;;;;;;15.50;85.17;98443.31;1629630;86;21847;-83
2021/09/28 00:57:14;;;;;;;;;;;;;;;15.47;85.19;98447.07;1625896;86;26108;-83
2021/09/28 00:59:40;;;;;;;;;;;;;;;15.45;85.21;98447.69;1626067;86;25304;-83
2021/09/28 01:02:09;;;;;;;;;;;;;;;15.43;85.25;98451.45;1625942;86;20853;-88
2021/09/28 01:04:35;;;;;;;;;;;;;;;15.47;85.30;98448.88;1624605;86;24823;-85
2021/09/28 01:07:02;;;;;;;;;;;;;;;15.50;85.36;98448.10;1625444;86;21972;-85
2021/09/28 01:09:30;;;;;;;;;;;;;;;15.49;85.42;98447.75;1624717;86;26061;-88
2021/09/28 01:11:56;;;;;;;;;;;;;;;15.50;85.46;98451.22;1626266;86;24441;-87
2021/09/28 01:14:22;;;;;;;;;;;;;;;15.54;85.49;98447.88;1625116;86;20228;-83
2021/09/28 01:16:48;;;;;;;;;;;;;;;15.60;85.55;98443.38;1625824;86;20582;-83
2021/09/28 01:19:14;;;;;;;;;;;;;;;15.64;85.62;98447.39;1623526;86;20207;-83
2021/09/28 01:21:40;;;;;;;;;;;;;;;15.61;85.66;98445.84;1627889;86;26092;-83
2021/09/28 01:24:07;;;;;;;;;;;;;;;15.65;85.68;98448.58;1626047;86;20669;-84
2021/09/28 01:26:33;;;;;;;;;;;;;;;15.70;85.72;98450.31;1624022;86;20220;-88
2021/09/28 01:29:00;;;;;;;;;;;;;;;15.74;85.76;98450.38;1625967;86;24954;-88
2021/09/28 01:31:32;;;;;;;;;;;;;;;15.74;85.76;98447.73;1624973;86;21521;-87
2021/09/28 01:34:01;;;;;;;;;;;;;;;15.74;85.81;98450.86;1625187;86;26063;-84
2021/09/28 01:36:27;;;;;;;;;;;;;;;15.75;85.81;98452.53;1623339;87;20277;-85
2021/09/28 01:38:53;;;;;;;;;;;;;;;15.73;85.84;98451.34;1621170;87;20304;-83
2021/09/28 01:41:19;;;;;;;;;;;;;;;15.72;85.82;98458.07;1612523;87;24775;-83
2021/09/28 01:43:45;;;;;;;;;;;;;;;15.69;85.85;98455.72;1618890;87;20277;-83
2021/09/28 01:46:11;;;;;;;;;;;;;;;15.66;85.87;98459.94;1622098;87;21119;-84
2021/09/28 01:48:45;;;;;;;;;;;;;;;15.65;85.89;98458.30;1615533;87;24714;-85
2021/09/28 01:51:11;;;;;;;;;;;;;;;15.64;85.90;98454.83;1613957;86;20261;-83
2021/09/28 01:53:37;;;;;;;;;;;;;;;15.65;85.92;98456.98;1622834;87;20254;-87
2021/09/28 01:56:03;;;;;;;;;;;;;;;15.63;85.97;98454.47;1622066;87;22051;-84
2021/09/28 01:58:29;;;;;;;;;;;;;;;15.61;85.97;98449.80;1621530;87;26872;-85
2021/09/28 02:00:55;;;;;;;;;;;;;;;15.65;86.00;98453.02;1617376;87;20472;-85
2021/09/28 02:03:21;;;;;;;;;;;;;;;15.64;86.01;98440.31;1616536;87;20294;-83
2021/09/28 02:05:47;;;;;;;;;;;;;;;15.82;86.07;98449.18;1620078;87;20825;-88
2021/09/28 02:08:13;;;;;;;;;;;;;;;15.84;86.09;98449.05;1621094;87;20492;-87
2021/09/28 02:10:39;;;;;;;;;;;;;;;15.81;86.13;98450.17;1619061;87;20988;-83
2021/09/28 02:13:05;;;;;;;;;;;;;;;15.78;86.15;98446.48;1614651;86;24585;-87
2021/09/28 02:15:31;;;;;;;;;;;;;;;15.77;86.15;98450.56;1622500;87;20173;-87
2021/09/28 02:17:59;;;;;;;;;;;;;;;15.69;86.16;98456.56;1626308;87;25012;-88
2021/09/28 02:20:25;;;;;;;;;;;;;;;15.65;86.13;98454.34;1622080;87;22151;-88
2021/09/28 02:22:51;;;;;;;;;;;;;;;15.74;86.17;98458.30;1630479;87;21120;-88
2021/09/28 02:25:19;;;;;;;;;;;;;;;15.82;86.21;98457.58;1621727;87;20241;-83
2021/09/28 02:27:44;;;;;;;;;;;;;;;15.78;86.21;98466.27;1618287;87;20513;-88
2021/09/28 02:30:11;;;;;;;;;;;;;;;15.71;86.24;98456.43;1615867;87;20218;-83
2021/09/28 02:32:37;;;;;;;;;;;;;;;15.64;86.22;98456.63;1613333;87;22113;-83
2021/09/28 02:35:04;;;;;;;;;;;;;;;15.55;86.22;98445.59;1622377;87;21167;-83
2021/09/28 02:37:30;;;;;;;;;;;;;;;15.53;86.23;98452.31;1617499;87;24453;-83
2021/09/28 02:39:56;;;;;;;;;;;;;;;15.51;86.26;98442.34;1624403;87;20247;-84
2021/09/28 02:42:22;;;;;;;;;;;;;;;15.50;86.29;98449.42;1605380;87;24905;-84
2021/09/28 02:44:52;;;;;;;;;;;;;;;15.49;86.32;98445.11;1625365;87;22042;-83
2021/09/28 02:47:18;;;;;;;;;;;;;;;15.48;86.39;98446.11;1621535;87;26792;-87
2021/09/28 02:49:50;;;;;;;;;;;;;;;15.50;86.43;98443.31;1619110;87;25299;-87
2021/09/28 02:52:16;;;;;;;;;;;;;;;15.48;86.46;98448.75;1618330;87;20239;-82
2021/09/28 02:54:42;;;;;;;;;;;;;;;15.47;86.49;98447.55;1623446;87;20246;-82
2021/09/28 02:57:08;;;;;;;;;;;;;;;15.35;86.51;98443.37;1621552;87;20314;-84
2021/09/28 02:59:35;;;;;;;;;;;;;;;15.28;86.50;98442.23;1617369;87;26128;-84
2021/09/28 03:02:02;;;;;;;;;;;;;;;15.21;86.51;98441.97;1619056;87;24415;-87
2021/09/28 03:04:28;;;;;;;;;;;;;;;15.16;86.55;98440.71;1622474;87;20330;-85
2021/09/28 03:06:55;;;;;;;;;;;;;;;15.11;86.61;98444.24;1619679;87;20247;-85
2021/09/28 03:09:21;;;;;;;;;;;;;;;15.12;86.66;98444.56;1621633;87;22636;-85
2021/09/28 03:11:49;;;;;;;;;;;;;;;15.10;86.72;98443.41;1602329;87;21073;-84
2021/09/28 03:14:15;;;;;;;;;;;;;;;14.96;86.78;98451.67;1625584;87;24411;-84
2021/09/28 03:16:41;;;;;;;;;;;;;;;14.84;86.79;98456.69;1622501;87;20379;-88
2021/09/28 03:19:07;;;;;;;;;;;;;;;14.72;86.83;98462.56;1621731;87;20262;-85
2021/09/28 03:21:33;;;;;;;;;;;;;;;14.60;86.87;98449.12;1623713;87;20239;-85
2021/09/28 03:24:02;;;;;;;;;;;;;;;14.51;86.94;98455.19;1621595;87;21591;-87
2021/09/28 03:26:28;;;;;;;;;;;;;;;14.42;87.01;98455.47;1614277;87;24521;-87
2021/09/28 03:28:54;;;;;;;;;;;;;;;14.37;87.12;98460.77;1624579;87;20487;-83
2021/09/28 03:31:20;;;;;;;;;;;;;;;14.31;87.22;98460.77;1621856;87;24803;-82
2021/09/28 03:33:48;;;;;;;;;;;;;;;14.24;87.32;98458.30;1617056;87;20220;-83
2021/09/28 03:36:17;;;;;;;;;;;;;;;14.20;87.48;98458.22;1619935;87;26907;-83
2021/09/28 03:38:43;;;;;;;;;;;;;;;14.15;87.60;98460.40;1619710;87;20273;-88
2021/09/28 03:41:13;;;;;;;;;;;;;;;14.12;87.71;98457.56;1627979;87;20174;-88
2021/09/28 03:43:37;;;;;;;;;;;;;;;14.10;87.86;98465.22;1623432;87;24787;-88
2021/09/28 03:46:04;;;;;;;;;;;;;;;14.05;87.97;98466.09;1630514;87;20239;-86
2021/09/28 03:48:30;;;;;;;;;;;;;;;14.00;88.08;98469.58;1631871;87;26146;-83
2021/09/28 03:50:58;;;;;;;;;;;;;;;13.97;88.21;98472.45;1634737;87;24502;-83
2021/09/28 03:53:24;;;;;;;;;;;;;;;13.97;88.36;98472.45;1627464;87;20615;-85
2021/09/28 03:55:50;;;;;;;;;;;;;;;13.94;88.47;98471.41;1637630;87;20223;-83
2021/09/28 03:58:17;;;;;;;;;;;;;;;13.93;88.61;98478.45;1633690;87;22076;-88
2021/09/28 04:00:43;;;;;;;;;;;;;;;13.91;88.71;98481.69;1628440;87;21071;-86
2021/09/28 04:03:12;;;;;;;;;;;;;;;13.90;88.84;98481.36;1658820;85;21427;-85
2021/09/28 04:05:38;;;;;;;;;;;;;;;13.92;88.96;98484.67;1624866;87;20258;-88
2021/09/28 04:08:05;;;;;;;;;;;;;;;13.97;89.12;98486.92;1629932;87;24993;-83
2021/09/28 04:10:31;;;;;;;;;;;;;;;14.01;89.25;98487.05;1626932;87;22014;-88
2021/09/28 04:12:57;;;;;;;;;;;;;;;14.03;89.35;98491.68;1634340;87;21214;-87
2021/09/28 04:15:25;;;;;;;;;;;;;;;14.01;89.47;98489.67;1638151;87;20285;-84
2021/09/28 04:17:52;;;;;;;;;;;;;;;14.03;89.58;98498.26;1631439;87;20233;-84
2021/09/28 04:20:18;;;;;;;;;;;;;;;14.06;89.68;98494.08;1624363;87;24740;-83
2021/09/28 04:22:44;;;;;;;;;;;;;;;14.05;89.75;98492.40;1628137;87;22219;-83
2021/09/28 04:25:11;;;;;;;;;;;;;;;14.05;89.86;98493.72;1626027;87;25986;-85
2021/09/28 04:27:37;;;;;;;;;;;;;;;14.06;89.93;98495.39;1631643;87;24446;-85
2021/09/28 04:30:04;;;;;;;;;;;;;;;14.05;90.00;98489.29;1629092;87;20223;-85
2021/09/28 04:32:30;;;;;;;;;;;;;;;14.07;90.07;98488.66;1628687;87;24846;-83
2021/09/28 04:34:59;;;;;;;;;;;;;;;14.06;90.17;98486.18;1621818;87;22132;-83
2021/09/28 04:37:25;;;;;;;;;;;;;;;14.05;90.25;98484.50;1629863;87;26019;-83
2021/09/28 04:39:51;;;;;;;;;;;;;;;13.92;90.28;98474.63;1631195;87;20333;-84
2021/09/28 04:42:17;;;;;;;;;;;;;;;13.94;90.34;98486.71;1629458;87;20249;-85
2021/09/28 04:44:44;;;;;;;;;;;;;;;13.90;90.37;98488.41;1625804;87;25238;-85
2021/09/28 04:47:10;;;;;;;;;;;;;;;13.87;90.40;98487.33;1628279;87;20249;-85
2021/09/28 04:49:37;;;;;;;;;;;;;;;13.80;90.46;98481.25;1627363;87;25938;-87
2021/09/28 04:52:03;;;;;;;;;;;;;;;13.80;90.52;98483.08;1626579;87;24478;-87
2021/09/28 04:54:29;;;;;;;;;;;;;;;13.76;90.58;98481.64;1618056;87;20472;-87
2021/09/28 04:56:55;;;;;;;;;;;;;;;13.76;90.65;98484.27;1630244;87;24832;-88
2021/09/28 04:59:21;;;;;;;;;;;;;;;13.75;90.71;98490.48;1624574;87;22077;-85
2021/09/28 05:01:47;;;;;;;;;;;;;;;13.74;90.79;98497.56;1633774;87;21692;-84
2021/09/28 05:04:16;;;;;;;;;;;;;;;13.68;90.85;98499.37;1628462;87;20261;-84
2021/09/28 05:06:42;;;;;;;;;;;;;;;13.66;90.90;98501.29;1630378;87;20223;-84
2021/09/28 05:09:09;;;;;;;;;;;;;;;13.63;90.94;98512.07;1627548;87;24972;-87
2021/09/28 05:11:36;;;;;;;;;;;;;;;13.60;90.99;98507.05;1625994;87;20278;-83
2021/09/28 05:14:02;;;;;;;;;;;;;;;13.62;91.07;98515.66;1630617;87;26090;-85
2021/09/28 05:16:29;;;;;;;;;;;;;;;13.64;91.14;98517.66;1625583;87;24520;-88
2021/09/28 05:18:55;;;;;;;;;;;;;;;13.73;91.26;98518.25;1627808;87;20290;-84
2021/09/28 05:21:21;;;;;;;;;;;;;;;13.91;91.36;98529.55;1627941;87;24763;-83
2021/09/28 05:23:47;;;;;;;;;;;;;;;14.05;91.45;98527.92;1628394;87;21959;-88
2021/09/28 05:26:14;;;;;;;;;;;;;;;14.11;91.60;98529.58;1631658;87;25947;-85
2021/09/28 05:28:40;;;;;;;;;;;;;;;14.16;91.68;98535.77;1626926;87;24528;-83
2021/09/28 05:31:06;;;;;;;;;;;;;;;14.20;91.76;98532.75;1624983;87;20231;-87
2021/09/28 05:33:32;;;;;;;;;;;;;;;14.23;91.77;98534.31;1621587;87;24920;-87
2021/09/28 05:35:58;;;;;;;;;;;;;;;14.23;91.81;98527.25;1634676;87;20467;-83
2021/09/28 05:38:25;;;;;;;;;;;;;;;14.24;91.83;98531.53;1627374;87;26011;-84
2021/09/28 05:40:51;;;;;;;;;;;;;;;14.21;91.83;98534.43;1628618;87;24835;-85
2021/09/28 05:43:17;;;;;;;;;;;;;;;14.20;91.83;98538.49;1601217;87;20275;-83
2021/09/28 05:45:43;;;;;;;;;;;;;;;14.17;91.81;98542.71;1630170;87;20749;-83
2021/09/28 05:48:09;;;;;;;;;;;;;;;14.19;91.80;98540.28;1634656;87;20251;-83
2021/09/28 05:50:36;;;;;;;;;;;;;;;14.18;91.79;98535.17;1634154;86;21065;-88
2021/09/28 05:53:08;;;;;;;;;;;;;;;14.12;91.77;98542.26;1624104;87;24548;-87
2021/09/28 05:55:32;;;;;;;;;;;;;;;14.05;91.75;98547.66;1622873;87;20265;-87
2021/09/28 05:57:58;;;;;;;;;;;;;;;13.94;91.71;98550.33;1618668;87;24805;-83
2021/09/28 06:00:24;;;;;;;;;;;;;;;13.82;91.63;98553.00;1625231;87;21998;-85
2021/09/28 06:02:53;;;;;;;;;;;;;;;13.78;91.61;98553.38;1626788;87;21212;-88
2021/09/28 06:05:20;;;;;;;;;;;;;;;13.82;91.60;98554.31;1623519;87;24508;-83
2021/09/28 06:07:50;;;;;;;;;;;;;;;13.89;91.67;98556.45;1624327;87;20753;-84
2021/09/28 06:10:16;;;;;;;;;;;;;;;13.94;91.74;98564.33;1613209;87;24776;-83
2021/09/28 06:12:48;;;;;;;;;;;;;;;13.99;91.77;98565.27;1632394;87;20230;-88
2021/09/28 06:15:14;;;;;;;;;;;;;;;13.98;91.81;98563.59;1633063;87;25946;-88
2021/09/28 06:17:40;;;;;;;;;;;;;;;14.00;91.85;98566.47;1632953;87;24370;-87
2021/09/28 06:20:06;;;;;;;;;;;;;;;14.00;91.87;98569.57;1630681;85;20924;-83
2021/09/28 06:22:32;;;;;;;;;;;;;;;14.00;91.92;98573.05;1623316;87;24761;-88
2021/09/28 06:24:58;;;;;;;;;;;;;;;14.00;91.92;98573.52;1620824;87;20911;-83
2021/09/28 06:27:24;;;;;;;;;;;;;;;14.02;91.95;98575.05;1618857;87;21836;-84
2021/09/28 06:29:51;;;;;;;;;;;;;;;13.99;91.91;98575.31;1617616;87;24405;-85
2021/09/28 06:32:18;;;;;;;;;;;;;;;13.93;91.94;98578.44;1631278;87;20529;-88
2021/09/28 06:34:47;;;;;;;;;;;;;;;13.85;91.92;98575.61;1625513;87;24905;-87
2021/09/28 06:37:13;;;;;;;;;;;;;;;13.83;91.91;98579.67;1629570;87;22090;-88
2021/09/28 06:39:40;;;;;;;;;;;;;;;13.83;91.93;98586.72;1634772;85;26076;-87
2021/09/28 06:42:06;;;;;;;;;;;;;;;13.81;91.94;98588.63;1632283;87;20271;-83
2021/09/28 06:44:36;;;;;;;;;;;;;;;13.79;91.96;98591.88;1631895;87;20231;-87
2021/09/28 06:47:05;;;;;;;;;;;;;;;13.79;91.98;98591.88;1625445;86;24789;-87
2021/09/28 06:49:33;;;;;;;;;;;;;;;13.78;92.00;98591.52;1627899;87;21991;-88
2021/09/28 06:51:59;;;;;;;;;;;;;;;13.77;92.04;98596.42;1628081;87;26891;-88
2021/09/28 06:54:27;;;;;;;;;;;;;;;13.77;92.07;98587.22;1598415;87;20196;-86
2021/09/28 06:56:59;;;;;;;;;;;;;;;13.80;92.12;98587.79;1633714;87;20815;-85
2021/09/28 06:59:25;;;;;;;;;;;;;;;13.86;92.17;98589.57;1622022;87;24932;-87
2021/09/28 07:01:51;;;;;;;;;;;;;;;13.88;92.25;98591.13;1625123;87;20219;-83
2021/09/28 07:04:17;;;;;;;;;;;;;;;13.88;92.31;98596.39;1629615;87;21701;-87
2021/09/28 07:06:43;;;;;;;;;;;;;;;13.90;92.38;98603.70;1623799;87;20218;-85
2021/09/28 07:09:09;;;;;;;;;;;;;;;13.87;92.39;98603.09;1632237;87;20400;-85
2021/09/28 07:11:35;;;;;;;;;;;;;;;13.84;92.40;98602.87;1627849;87;20493;-83
2021/09/28 07:14:01;;;;;;;;;;;;;;;13.90;92.45;98605.01;1624380;87;20919;-85
2021/09/28 07:16:26;;;;;;;;;;;;;;;13.95;92.51;98608.11;1629589;87;20948;-88
2021/09/28 07:18:55;;;;;;;;;;;;;;;13.94;92.56;98607.74;1632725;87;24531;-88
2021/09/28 07:21:21;;;;;;;;;;;;;;;13.90;92.60;98609.44;1623209;87;20361;-87
2021/09/28 07:23:47;;;;;;;;;;;;;;;13.87;92.60;98610.50;1632909;87;24920;-88
2021/09/28 07:26:13;;;;;;;;;;;;;;;13.87;92.64;98612.30;1629863;87;20262;-88
2021/09/28 07:28:39;;;;;;;;;;;;;;;13.86;92.63;98610.61;1626065;87;21267;-87
2021/09/28 07:31:08;;;;;;;;;;;;;;;13.83;92.66;98608.61;1626502;87;20243;-84
2021/09/28 07:33:34;;;;;;;;;;;;;;;13.81;92.66;98613.14;1630379;87;20180;-87
2021/09/28 07:36:05;;;;;;;;;;;;;;;13.76;92.71;98607.42;1630922;87;38846;-87
2021/09/28 07:38:33;;;;;;;;;;;;;;;13.70;92.70;98609.22;1627504;86;21981;-87
2021/09/28 07:40:59;;;;;;;;;;;;;;;13.68;92.71;98613.78;1626412;87;26228;-87
2021/09/28 07:43:25;;;;;;;;;;;;;;;13.69;92.75;98615.94;1618433;87;25171;-85
2021/09/28 07:45:51;;;;;;;;;;;;;;;13.71;92.80;98619.27;1620868;87;20243;-84
2021/09/28 07:48:17;;;;;;;;;;;;;;;13.72;92.84;98621.78;1620481;87;24801;-83
2021/09/28 07:50:43;;;;;;;;;;;;;;;13.82;92.92;98619.25;1611654;87;20281;-83
2021/09/28 07:53:09;;;;;;;;;;;;;;;13.88;93.02;98624.50;1613561;87;26002;-87
2021/09/28 07:55:35;;;;;;;;;;;;;;;13.89;93.07;98633.59;1620921;86;20326;-83
2021/09/28 07:58:02;;;;;;;;;;;;;;;13.83;93.13;98631.45;1624473;87;20212;-83
2021/09/28 08:00:28;;;;;;;;;;;;;;;13.74;93.12;98638.29;1626653;87;24916;-85
2021/09/28 08:03:01;;;;;;;;;;;;;;;13.69;93.12;98636.47;1618609;87;21947;-84
2021/09/28 08:05:27;;;;;;;;;;;;;;;13.67;93.11;98637.57;1619375;87;26170;-88
2021/09/28 08:07:53;;;;;;;;;;;;;;;13.66;93.12;98643.78;1620322;87;20378;-83
2021/09/28 08:10:20;;;;;;;;;;;;;;;13.63;93.13;98647.51;1617096;87;20294;-83
2021/09/28 08:12:46;;;;;;;;;;;;;;;13.63;93.17;98653.23;1617481;87;24868;-84
2021/09/28 08:15:12;;;;;;;;;;;;;;;13.59;93.18;98653.94;1618258;87;20226;-84
2021/09/28 08:17:38;;;;;;;;;;;;;;;13.62;93.20;98656.34;1619934;87;26785;-87
2021/09/28 08:20:09;;;;;;;;;;;;;;;13.58;93.25;98655.40;1622818;87;20287;-84
2021/09/28 08:22:39;;;;;;;;;;;;;;;13.56;93.28;98657.30;1627204;87;20604;-87
2021/09/28 08:25:08;;;;;;;;;;;;;;;13.55;93.29;98660.41;1620313;87;25448;-84
2021/09/28 08:30:23;;;;;;;;;;;;;;;13.59;93.36;98661.83;1612680;87;26158;-87
2021/09/28 08:32:51;;;;;;;;;;;;;;;13.61;93.43;98662.55;1610412;86;24009;-87
2021/09/28 08:35:15;;;;;;;;;;;;;;;13.61;93.45;98665.66;1613986;87;20174;-87
2021/09/28 08:37:45;;;;;;;;;;;;;;;13.66;93.51;98666.98;1623400;87;24850;-88
2021/09/28 08:40:13;;;;;;;;;;;;;;;13.70;93.56;98667.56;1615984;87;20272;-88
2021/09/28 08:42:40;;;;;;;;;;;;;;;13.80;93.63;98661.95;1622340;87;26098;-88
2021/09/28 08:45:07;;;;;;;;;;;;;;;13.88;93.74;98669.22;1619444;87;24540;-83
2021/09/28 08:47:35;;;;;;;;;;;;;;;13.92;93.80;98669.33;1615180;87;20171;-83
2021/09/28 08:50:03;;;;;;;;;;;;;;;13.96;93.85;98670.78;1615553;86;24748;-83
2021/09/28 08:52:30;;;;;;;;;;;;;;;14.04;93.91;98663.09;1620551;87;21940;-84
2021/09/28 08:54:57;;;;;;;;;;;;;;;14.13;93.94;98668.44;1619236;87;26016;-87
2021/09/28 08:57:25;;;;;;;;;;;;;;;14.25;94.00;98670.56;1626124;87;24720;-87
2021/09/28 08:59:51;;;;;;;;;;;;;;;14.29;94.06;98663.28;1621937;87;20211;-87
2021/09/28 09:02:17;;;;;;;;;;;;;;;14.27;94.04;98667.34;1617741;87;20222;-83
2021/09/28 09:04:47;;;;;;;;;;;;;;;14.35;94.05;98657.01;1613737;86;21963;-83
2021/09/28 09:07:21;;;;;;;;;;;;;;;14.43;94.03;98656.42;1620347;86;26158;-84
2021/09/28 09:09:48;;;;;;;;;;;;;;;14.45;94.04;98657.98;1619664;86;24665;-84
2021/09/28 09:12:14;;;;;;;;;;;;;;;14.47;94.01;98656.05;1622901;86;20187;-84
2021/09/28 09:14:40;;;;;;;;;;;;;;;14.43;93.99;98659.06;1623321;87;24584;-83
2021/09/28 09:17:06;;;;;;;;;;;;;;;14.41;93.93;98664.44;1622852;87;22022;-83
2021/09/28 09:19:33;;;;;;;;;;;;;;;14.40;93.88;98664.08;1622684;87;21044;-82
2021/09/28 09:21:59;;;;;;;;;;;;;;;14.40;93.83;98664.59;1624865;87;24700;-87
2021/09/28 09:24:44;;;;;;;;;;;;;;;14.36;93.78;98670.53;1622344;87;20305;-88
2021/09/28 09:27:11;;;;;;;;;;;;;;;14.40;93.73;98662.77;1620613;87;24718;-88
2021/09/28 09:29:37;;;;;;;;;;;;;;;14.48;93.74;98667.41;1620785;87;21949;-88
2021/09/28 09:32:04;;;;;;;;;;;;;;;14.53;93.70;98666.55;1616986;87;26096;-87
2021/09/28 09:34:30;;;;;;;;;;;;;;;14.58;93.72;98665.69;1624459;87;25357;-88
2021/09/28 09:37:02;;;;;;;;;;;;;;;14.55;93.69;98669.91;1621850;87;20350;-82
2021/09/28 09:39:30;;;;;;;;;;;;;;;14.57;93.62;98668.80;1628774;87;26398;-88
2021/09/28 09:42:06;;;;;;;;;;;;;;;14.61;93.60;98672.88;1590643;87;21948;-84
2021/09/28 09:44:32;;;;;;;;;;;;;;;14.68;93.57;98676.30;1624658;87;26560;-88
2021/09/28 09:47:05;;;;;;;;;;;;;;;14.74;93.56;98674.00;1622714;87;24968;-83
2021/09/28 09:49:30;;;;;;;;;;;;;;;14.84;93.56;98680.17;1620002;87;20285;-83
2021/09/28 09:52:03;;;;;;;;;;;;;;;14.92;93.55;98678.23;1617494;87;24867;-83
2021/09/28 09:54:31;;;;;;;;;;;;;;;14.96;93.52;98679.62;1622044;86;21952;-87
2021/09/28 09:56:58;;;;;;;;;;;;;;;15.01;93.51;98684.88;1618370;87;26076;-87
2021/09/28 09:59:24;;;;;;;;;;;;;;;15.03;93.45;98680.80;1618948;87;25512;-87
2021/09/28 10:01:51;;;;;;;;;;;;;;;15.00;93.35;98681.87;1627464;87;20302;-88
2021/09/28 10:04:18;;;;;;;;;;;;;;;14.99;93.30;98682.03;1597575;87;25018;-87
2021/09/28 10:06:44;;;;;;;;;;;;;;;14.96;93.22;98686.22;1623079;87;22623;-87
2021/09/28 10:09:19;;;;;;;;;;;;;;;14.95;93.11;98681.91;1616674;87;21739;-83
2021/09/28 10:11:47;;;;;;;;;;;;;;;15.02;93.04;98689.19;1625559;87;24545;-87
2021/09/28 10:14:31;;;;;;;;;;;;;;;15.11;93.02;98688.08;1620773;86;20235;-84
2021/09/28 10:17:00;;;;;;;;;;;;;;;15.16;92.98;98685.41;1620192;87;24760;-88
2021/09/28 10:19:28;;;;;;;;;;;;;;;15.19;92.94;98689.56;1624042;87;22022;-87
2021/09/28 10:21:57;;;;;;;;;;;;;;;15.29;92.88;98693.92;1624080;87;26154;-88
2021/09/28 10:24:30;;;;;;;;;;;;;;;15.43;92.89;98687.02;1622804;86;25199;-83
2021/09/28 10:26:58;;;;;;;;;;;;;;;15.54;92.88;98685.28;1618945;86;20497;-88
2021/09/28 10:29:42;;;;;;;;;;;;;;;15.65;92.86;98691.79;1622447;87;25527;-88
2021/09/28 10:32:36;;;;;;;;;;;;;;;15.69;92.77;98686.59;1619964;87;22026;-87
2021/09/28 10:37:52;;;;;;;;;;;;;;;15.73;92.47;98685.34;1631202;87;24658;-88
2021/09/28 10:40:24;;;;;;;;;;;;;;;15.80;92.37;98686.02;1618938;87;20552;-84
2021/09/28 10:42:51;;;;;;;;;;;;;;;15.88;92.24;98684.84;1617602;87;24786;-88
2021/09/28 10:45:18;;;;;;;;;;;;;;;15.88;92.11;98675.61;1620818;87;21975;-84
2021/09/28 10:47:49;;;;;;;;;;;;;;;15.85;91.96;98680.33;1617889;87;26021;-87
2021/09/28 10:50:16;;;;;;;;;;;;;;;15.88;91.80;98676.09;1620266;87;24449;-88
2021/09/28 10:52:42;;;;;;;;;;;;;;;15.93;91.66;98669.92;1616453;87;20200;-87
2021/09/28 10:55:11;;;;;;;;;;;;;;;16.08;91.62;98675.67;1625603;87;20753;-84
2021/09/28 10:58:15;;;;;;;;;;;;;;;16.13;91.52;98674.78;1619187;87;22056;-88
2021/09/28 11:00:44;;;;;;;;;;;;;;;16.12;91.36;98671.30;1622351;87;26012;-83
2021/09/28 11:03:11;;;;;;;;;;;;;;;16.15;91.16;98667.53;1616000;87;24576;-83
2021/09/28 11:05:42;;;;;;;;;;;;;;;16.22;91.01;98673.47;1637011;87;20288;-84
2021/09/28 11:08:09;;;;;;;;;;;;;;;16.23;90.85;98671.18;1652627;84;24638;-84
2021/09/28 11:10:36;;;;;;;;;;;;;;;16.23;90.66;98674.30;1617222;87;22087;-84
2021/09/28 11:13:10;;;;;;;;;;;;;;;16.22;90.46;98673.47;1629744;87;26030;-84
2021/09/28 11:15:37;;;;;;;;;;;;;;;16.37;90.34;98675.70;1614214;87;24441;-87
2021/09/28 11:18:13;;;;;;;;;;;;;;;16.47;90.23;98680.53;1617173;87;20518;-88
2021/09/28 11:20:39;;;;;;;;;;;;;;;16.59;90.16;98678.11;1620007;87;24820;-83
2021/09/28 11:23:08;;;;;;;;;;;;;;;16.63;89.94;98672.92;1613246;87;22081;-83
2021/09/28 11:25:35;;;;;;;;;;;;;;;16.67;89.74;98670.34;1621242;87;26782;-87
2021/09/28 11:28:12;;;;;;;;;;;;;;;16.66;89.51;98670.82;1617473;86;25309;-87
2021/09/28 11:30:40;;;;;;;;;;;;;;;16.70;89.31;98664.76;1623105;87;20257;-87
2021/09/28 11:33:12;;;;;;;;;;;;;;;16.75;89.11;98669.14;1624158;87;24798;-84
2021/09/28 11:35:38;;;;;;;;;;;;;;;16.76;88.83;98666.84;1623045;87;22177;-88
2021/09/28 11:38:05;;;;;;;;;;;;;;;16.83;88.57;98664.48;1621395;87;21848;-84
2021/09/28 11:40:37;;;;;;;;;;;;;;;16.93;88.39;98657.37;1626585;87;24161;-84
2021/09/28 11:43:17;;;;;;;;;;;;;;;17.00;88.14;98652.70;1613319;87;20322;-84
2021/09/28 11:45:43;;;;;;;;;;;;;;;17.01;87.90;98655.70;1623764;87;25630;-85
2021/09/28 11:48:09;;;;;;;;;;;;;;;16.99;87.51;98654.16;1612825;87;22213;-88
2021/09/28 11:50:35;;;;;;;;;;;;;;;16.96;87.21;98660.59;1617767;87;21036;-83
2021/09/28 11:53:08;;;;;;;;;;;;;;;16.92;86.85;98657.85;1629551;87;24670;-83
2021/09/28 11:55:34;;;;;;;;;;;;;;;16.94;86.59;98662.52;1620881;87;20160;-84
2021/09/28 11:58:00;;;;;;;;;;;;;;;17.00;86.34;98655.84;1621199;87;20220;-84
2021/09/28 12:00:26;;;;;;;;;;;;;;;17.03;86.11;98652.89;1610561;87;22023;-84
2021/09/28 12:03:06;;;;;;;;;;;;;;;17.11;85.94;98649.91;1621686;87;26004;-85
2021/09/28 12:05:45;;;;;;;;;;;;;;;17.23;85.83;98648.41;1587077;87;24703;-86
2021/09/28 12:08:01;;;;;;;;;;;;;;;17.24;85.59;98655.38;1621247;86;20227;-87
2021/09/28 12:10:29;;;;;;;;;;;;;;;17.25;85.27;98651.23;1616413;87;25589;-82
2021/09/28 12:12:55;;;;;;;;;;;;;;;17.28;85.00;98654.10;1618334;86;23355;-82
2021/09/28 12:15:21;;;;;;;;;;;;;;;17.26;84.65;98653.41;1622583;87;20869;-87
2021/09/28 12:17:48;;;;;;;;;;;;;;;17.18;84.23;98654.14;1620761;87;20363;-87
2021/09/28 12:20:16;;;;;;;;;;;;;;;17.15;83.86;98653.08;1619574;87;20411;-83
2021/09/28 12:23:01;;;;;;;;;;;;;;;17.23;83.65;98656.34;1620345;87;24871;-87
2021/09/28 12:25:37;;;;;;;;;;;;;;;17.31;83.49;98652.48;1617309;87;23519;-83
2021/09/28 12:28:08;;;;;;;;;;;;;;;17.32;83.20;98653.67;1627259;87;25991;-87
2021/09/28 12:30:35;;;;;;;;;;;;;;;17.28;82.87;98650.14;1619684;87;24538;-87
2021/09/28 12:33:05;;;;;;;;;;;;;;;17.27;82.50;98649.78;1617720;87;20168;-82
2021/09/28 12:35:35;;;;;;;;;;;;;;;17.26;82.19;98645.47;1616945;86;24895;-87
2021/09/28 12:38:02;;;;;;;;;;;;;;;17.31;81.91;98646.70;1619543;87;21516;-87
2021/09/28 12:40:38;;;;;;;;;;;;;;;17.31;81.65;98645.37;1623131;87;26883;-86
2021/09/28 12:43:05;;;;;;;;;;;;;;;17.27;81.36;98641.36;1622990;87;24575;-87
2021/09/28 12:45:41;;;;;;;;;;;;;;;17.26;81.05;98644.14;1617161;87;20180;-83
2021/09/28 12:48:07;;;;;;;;;;;;;;;17.26;80.75;98642.82;1623737;87;24790;-82
2021/09/28 12:50:34;;;;;;;;;;;;;;;17.15;80.40;98644.66;1621221;87;21836;-86
2021/09/28 12:53:01;;;;;;;;;;;;;;;17.07;80.02;98644.53;1617262;87;26201;-87
2021/09/28 12:55:28;;;;;;;;;;;;;;;17.01;79.68;98649.58;1625874;87;24602;-87